Time;durP1;ratioP1;P1;durP2;ratioP2;P2;SDS_P1;SDS_P2;PMS_P1;PMS_P2;Temp;Humidity;BMP_temperature;BMP_pressure;BME280_temperature;BME280_humidity;BME280_pressure;Samples;Min_cycle;Max_cycle;Signal;HPM_P1;HPM_P2
2021/10/14 00:00:54;;;;;;;8.32;6.35;;;9.70;66.80;;;;;;5037210;28;20039;-61
2021/10/14 00:03:20;;;;;;;8.57;5.90;;;9.70;66.70;;;;;;5037366;28;20029;-61
2021/10/14 00:05:46;;;;;;;9.57;6.03;;;9.60;67.00;;;;;;5054654;28;20071;-61
2021/10/14 00:08:12;;;;;;;9.15;5.75;;;9.60;66.30;;;;;;5055380;28;20420;-62
2021/10/14 00:10:38;;;;;;;8.05;6.43;;;9.60;66.30;;;;;;5054425;28;20064;-60
2021/10/14 00:13:04;;;;;;;6.78;5.53;;;9.60;66.10;;;;;;5055095;28;20438;-61
2021/10/14 00:15:30;;;;;;;6.78;5.35;;;9.60;66.00;;;;;;5054574;28;20032;-61
2021/10/14 00:17:58;;;;;;;8.45;5.70;;;9.60;66.00;;;;;;5055082;28;20531;-61
2021/10/14 00:20:25;;;;;;;8.00;5.82;;;9.60;65.90;;;;;;5036972;28;20043;-61
2021/10/14 00:22:51;;;;;;;7.68;5.55;;;9.50;66.00;;;;;;5054453;28;20029;-61
2021/10/14 00:25:19;;;;;;;8.27;6.18;;;9.50;66.20;;;;;;5054558;28;20071;-62
2021/10/14 00:27:45;;;;;;;6.65;5.65;;;9.50;66.30;;;;;;5053818;28;20056;-61
2021/10/14 00:30:12;;;;;;;8.00;6.40;;;9.50;66.40;;;;;;5054369;28;20029;-60
2021/10/14 00:32:38;;;;;;;8.38;5.90;;;9.40;66.40;;;;;;5053955;28;20462;-60
2021/10/14 00:35:04;;;;;;;9.75;6.68;;;9.40;66.40;;;;;;5054155;28;20025;-61
2021/10/14 00:37:30;;;;;;;9.57;6.63;;;9.50;66.50;;;;;;5052585;28;20067;-59
2021/10/14 00:39:56;;;;;;;7.65;6.05;;;9.50;66.50;;;;;;5036247;28;20033;-61
2021/10/14 00:42:21;;;;;;;8.18;6.30;;;9.50;66.50;;;;;;5054305;28;20036;-61
2021/10/14 00:44:50;;;;;;;10.18;6.10;;;9.50;66.60;;;;;;5053436;28;20045;-60
2021/10/14 00:47:21;;;;;;;8.23;6.50;;;9.40;66.60;;;;;;5053967;28;20486;-62
2021/10/14 00:49:47;;;;;;;9.25;6.88;;;9.40;66.70;;;;;;5052298;28;20466;-62
2021/10/14 00:52:13;;;;;;;11.48;7.03;;;9.40;66.70;;;;;;5054462;28;20036;-60
2021/10/14 00:54:39;;;;;;;10.38;7.93;;;9.40;66.80;;;;;;5053648;28;20029;-62
2021/10/14 00:57:05;;;;;;;10.05;6.82;;;9.40;67.00;;;;;;5053959;28;20431;-61
2021/10/14 00:59:32;;;;;;;10.65;7.10;;;9.30;67.20;;;;;;5053520;28;20029;-60
2021/10/14 01:01:57;;;;;;;7.90;6.20;;;9.30;67.40;;;;;;5054111;28;20033;-61
2021/10/14 01:04:23;;;;;;;8.90;6.80;;;9.30;67.30;;;;;;5054069;28;20025;-61
2021/10/14 01:06:49;;;;;;;10.13;7.90;;;9.30;67.30;;;;;;5052192;28;20166;-61
2021/10/14 01:09:16;;;;;;;10.77;7.00;;;9.30;67.40;;;;;;5054109;28;20056;-61
2021/10/14 01:11:42;;;;;;;9.77;7.63;;;9.30;67.50;;;;;;5053167;28;20470;-62
2021/10/14 01:14:08;;;;;;;12.50;8.00;;;9.20;67.70;;;;;;5054072;28;20036;-61
2021/10/14 01:16:45;;;;;;;12.75;7.90;;;9.20;67.70;;;;;;5053476;28;20025;-60
2021/10/14 01:19:12;;;;;;;10.23;7.07;;;9.20;67.60;;;;;;5053855;28;20029;-61
2021/10/14 01:21:39;;;;;;;10.55;8.13;;;9.20;67.60;;;;;;5053433;28;20139;-61
2021/10/14 01:24:05;;;;;;;11.15;7.60;;;9.30;67.60;;;;;;5053402;28;20024;-61
2021/10/14 01:26:31;;;;;;;10.43;7.30;;;9.30;67.60;;;;;;5053112;28;20108;-60
2021/10/14 01:28:57;;;;;;;10.07;7.78;;;9.30;67.50;;;;;;5053427;28;20052;-61
2021/10/14 01:31:24;;;;;;;10.27;7.15;;;9.20;67.50;;;;;;5053622;28;20112;-61
2021/10/14 01:33:50;;;;;;;13.68;8.48;;;9.20;67.60;;;;;;5053044;28;20036;-60
2021/10/14 01:36:16;;;;;;;10.00;7.35;;;9.20;67.60;;;;;;5053625;28;20438;-62
2021/10/14 01:38:42;;;;;;;9.30;7.43;;;9.20;67.60;;;;;;5052806;28;20115;-62
2021/10/14 01:41:07;;;;;;;10.43;7.93;;;9.20;67.70;;;;;;5053279;28;20043;-62
2021/10/14 01:43:34;;;;;;;11.32;7.60;;;9.20;67.50;;;;;;5052287;28;20441;-55
2021/10/14 01:46:00;;;;;;;11.73;7.97;;;9.20;67.50;;;;;;5052300;28;20544;-55
2021/10/14 01:48:27;;;;;;;9.50;7.50;;;9.20;67.50;;;;;;5052175;28;20073;-52
2021/10/14 01:50:57;;;;;;;9.75;7.07;;;9.20;67.50;;;;;;5032998;28;20094;-55
2021/10/14 01:53:24;;;;;;;11.68;7.65;;;9.20;67.50;;;;;;5034692;28;20197;-54
2021/10/14 01:55:50;;;;;;;9.80;7.65;;;9.10;67.70;;;;;;5052050;28;20445;-52
2021/10/14 01:58:16;;;;;;;12.25;8.38;;;9.10;67.80;;;;;;5034527;28;20025;-52
2021/10/14 02:00:42;;;;;;;8.48;6.75;;;9.10;67.90;;;;;;5051916;28;20033;-55
2021/10/14 02:03:07;;;;;;;9.82;7.72;;;9.10;68.10;;;;;;5052181;28;20023;-51
2021/10/14 02:05:33;;;;;;;10.32;7.70;;;9.00;68.30;;;;;;5033999;28;20060;-58
2021/10/14 02:08:00;;;;;;;10.18;7.72;;;9.00;68.50;;;;;;5052372;28;20545;-50
2021/10/14 02:10:25;;;;;;;12.60;8.18;;;9.00;68.60;;;;;;5034370;28;20024;-55
2021/10/14 02:12:54;;;;;;;10.40;7.80;;;9.00;68.70;;;;;;5033987;28;20086;-53
2021/10/14 02:15:20;;;;;;;11.98;8.80;;;9.00;68.80;;;;;;5052384;28;20025;-51
2021/10/14 02:17:46;;;;;;;12.80;8.38;;;9.00;68.90;;;;;;5051714;28;20382;-55
2021/10/14 02:20:12;;;;;;;10.55;8.43;;;9.00;68.90;;;;;;5050792;28;20036;-54
2021/10/14 02:22:39;;;;;;;10.82;7.70;;;9.00;69.30;;;;;;5051663;28;20213;-53
2021/10/14 02:25:06;;;;;;;9.45;8.32;;;9.00;69.50;;;;;;5050650;28;20386;-55
2021/10/14 02:27:32;;;;;;;11.50;8.25;;;8.90;69.40;;;;;;5050671;28;20035;-54
2021/10/14 02:29:58;;;;;;;13.23;8.57;;;9.00;69.50;;;;;;5033498;28;20382;-53
2021/10/14 02:32:23;;;;;;;12.93;8.00;;;9.00;69.50;;;;;;5033901;28;20378;-52
2021/10/14 02:34:49;;;;;;;11.90;8.18;;;9.00;69.40;;;;;;5051220;28;20021;-54
2021/10/14 02:37:15;;;;;;;10.07;7.93;;;9.00;69.30;;;;;;5034112;28;20116;-54
2021/10/14 02:39:40;;;;;;;11.20;8.27;;;9.00;69.30;;;;;;5051124;28;20033;-54
2021/10/14 02:42:06;;;;;;;10.63;7.85;;;9.00;69.30;;;;;;5050670;28;20407;-53
2021/10/14 02:44:32;;;;;;;10.98;7.85;;;9.00;69.30;;;;;;5051129;28;20029;-52
2021/10/14 02:46:57;;;;;;;10.90;8.10;;;9.00;69.30;;;;;;5049411;28;20459;-49
2021/10/14 02:49:42;;;;;;;9.85;7.43;;;9.00;69.30;;;;;;5051188;28;20381;-56
2021/10/14 02:52:07;;;;;;;8.80;7.43;;;9.00;69.20;;;;;;5050939;28;20048;-54
2021/10/14 02:54:33;;;;;;;10.70;7.32;;;9.00;69.10;;;;;;5050907;28;20051;-55
2021/10/14 02:56:59;;;;;;;12.52;7.13;;;9.00;69.00;;;;;;5050487;28;20135;-52
2021/10/14 02:59:25;;;;;;;9.70;7.28;;;9.00;69.00;;;;;;5050399;28;20033;-53
2021/10/14 03:01:51;;;;;;;10.80;6.82;;;9.00;69.00;;;;;;5049515;28;20172;-56
2021/10/14 03:04:17;;;;;;;11.20;7.82;;;9.00;69.00;;;;;;5051113;28;20025;-56
2021/10/14 03:06:43;;;;;;;8.77;7.10;;;8.90;69.00;;;;;;5050374;28;20028;-56
2021/10/14 03:09:09;;;;;;;11.65;7.80;;;9.00;69.10;;;;;;5051001;28;20359;-55
2021/10/14 03:11:34;;;;;;;8.60;6.70;;;8.90;69.00;;;;;;5050988;28;20036;-56
2021/10/14 03:14:00;;;;;;;9.50;7.07;;;8.90;68.90;;;;;;5049236;28;20033;-57
2021/10/14 03:16:26;;;;;;;8.93;6.93;;;8.90;68.90;;;;;;5050535;28;20055;-54
2021/10/14 03:18:52;;;;;;;8.32;6.88;;;8.90;68.80;;;;;;5050280;28;20037;-54
2021/10/14 03:21:18;;;;;;;8.90;6.72;;;8.90;68.70;;;;;;5032901;28;20059;-56
2021/10/14 03:23:44;;;;;;;9.52;6.07;;;8.90;69.30;;;;;;5050347;28;20125;-52
2021/10/14 03:26:10;;;;;;;10.57;6.38;;;8.90;68.50;;;;;;5050503;28;20462;-54
2021/10/14 03:28:36;;;;;;;9.73;6.40;;;8.90;68.40;;;;;;5032461;28;20033;-55
2021/10/14 03:31:02;;;;;;;8.73;6.43;;;9.00;68.30;;;;;;5033210;28;20087;-52
2021/10/14 03:33:28;;;;;;;8.77;6.10;;;9.00;68.30;;;;;;5050554;28;20048;-53
2021/10/14 03:35:54;;;;;;;7.82;6.32;;;8.90;68.00;;;;;;5049974;28;20063;-52
2021/10/14 03:38:19;;;;;;;8.25;6.30;;;9.00;67.90;;;;;;5032784;28;20025;-53
2021/10/14 03:40:45;;;;;;;12.27;6.93;;;9.00;68.40;;;;;;5049940;28;20055;-54
2021/10/14 03:43:11;;;;;;;10.35;6.55;;;9.00;67.70;;;;;;5032676;28;20446;-56
2021/10/14 03:45:37;;;;;;;11.88;7.40;;;9.00;67.70;;;;;;5050469;28;20056;-51
2021/10/14 03:48:03;;;;;;;9.48;7.30;;;9.00;67.80;;;;;;5048973;28;20021;-53
2021/10/14 03:50:28;;;;;;;10.85;7.00;;;9.00;67.80;;;;;;5050185;28;20033;-55
2021/10/14 03:52:54;;;;;;;11.85;8.63;;;9.00;67.80;;;;;;5049586;28;20415;-50
2021/10/14 03:55:20;;;;;;;11.25;7.97;;;9.00;67.90;;;;;;5050386;28;20029;-51
2021/10/14 03:57:45;;;;;;;13.88;8.35;;;9.00;68.00;;;;;;5049789;28;20029;-53
2021/10/14 04:00:12;;;;;;;11.52;9.05;;;9.00;68.20;;;;;;5050127;28;20562;-53
2021/10/14 04:02:37;;;;;;;14.52;9.00;;;9.00;68.30;;;;;;5049881;28;20072;-55
2021/10/14 04:05:04;;;;;;;11.20;8.45;;;8.90;68.50;;;;;;5049373;28;20044;-50
2021/10/14 04:07:29;;;;;;;13.82;9.65;;;8.90;68.60;;;;;;5049767;28;20033;-52
2021/10/14 04:09:55;;;;;;;14.18;9.98;;;8.90;68.60;;;;;;5049577;28;20022;-50
2021/10/14 04:12:21;;;;;;;17.70;10.10;;;8.90;68.70;;;;;;5053740;28;20056;-56
2021/10/14 04:14:47;;;;;;;13.38;9.73;;;8.90;68.80;;;;;;5052866;28;20060;-50
2021/10/14 04:19:57;;;;;;;15.68;10.90;;;8.90;69.00;;;;;;5053148;28;20437;-52
2021/10/14 04:22:22;;;;;;;19.60;11.93;;;8.90;69.10;;;;;;5053232;28;20029;-48
2021/10/14 04:24:48;;;;;;;16.98;12.25;;;8.90;69.10;;;;;;5035145;28;20107;-53
2021/10/14 04:27:15;;;;;;;17.48;12.43;;;8.80;69.20;;;;;;5054030;28;20029;-52
2021/10/14 04:29:40;;;;;;;22.90;12.70;;;8.90;69.40;;;;;;5052197;28;20043;-53
2021/10/14 04:32:08;;;;;;;18.25;12.38;;;8.80;69.40;;;;;;5053337;28;20033;-54
2021/10/14 04:34:35;;;;;;;17.65;12.30;;;8.80;69.80;;;;;;5053653;28;20123;-56
2021/10/14 04:37:02;;;;;;;23.02;13.63;;;8.80;70.00;;;;;;5053245;28;20021;-53
2021/10/14 04:39:28;;;;;;;21.52;13.68;;;8.70;70.80;;;;;;5035604;28;20029;-54
2021/10/14 04:41:54;;;;;;;17.30;13.15;;;8.70;70.30;;;;;;5052986;28;20067;-50
2021/10/14 04:44:20;;;;;;;19.88;14.00;;;8.80;70.40;;;;;;5053126;28;20060;-49
2021/10/14 04:46:45;;;;;;;17.67;12.68;;;8.80;70.40;;;;;;5052571;28;20045;-56
2021/10/14 04:49:11;;;;;;;17.48;13.77;;;8.80;70.20;;;;;;5053166;28;20068;-54
2021/10/14 04:51:37;;;;;;;20.13;13.43;;;8.70;70.20;;;;;;5053474;28;20089;-54
2021/10/14 04:54:02;;;;;;;19.50;13.90;;;8.80;70.20;;;;;;5034881;28;20106;-48
2021/10/14 04:56:28;;;;;;;30.70;16.92;;;8.80;70.20;;;;;;5035474;28;20071;-51
2021/10/14 04:58:54;;;;;;;21.77;14.25;;;8.80;70.30;;;;;;5053105;28;20103;-49
2021/10/14 05:01:19;;;;;;;26.33;13.93;;;8.80;70.30;;;;;;5053085;28;20132;-54
2021/10/14 05:03:45;;;;;;;18.73;14.43;;;8.80;70.20;;;;;;5051199;28;20351;-53
2021/10/14 05:06:12;;;;;;;20.17;14.15;;;8.80;70.20;;;;;;5052833;28;20025;-50
2021/10/14 05:08:37;;;;;;;21.95;14.00;;;8.80;70.20;;;;;;5051812;28;20121;-57
2021/10/14 05:11:08;;;;;;;18.60;13.07;;;8.80;70.30;;;;;;5052791;28;20473;-54
2021/10/14 05:13:33;;;;;;;19.92;14.02;;;8.80;70.20;;;;;;5053053;28;20033;-52
2021/10/14 05:15:59;;;;;;;25.23;14.05;;;8.80;70.30;;;;;;5050892;28;20025;-52
2021/10/14 05:18:25;;;;;;;21.35;14.00;;;8.80;70.40;;;;;;5035566;28;20484;-50
2021/10/14 05:20:50;;;;;;;20.23;13.40;;;8.80;70.50;;;;;;5053306;28;20037;-57
2021/10/14 05:23:16;;;;;;;18.77;13.95;;;8.80;70.60;;;;;;5052120;28;20021;-56
2021/10/14 05:25:42;;;;;;;20.75;13.05;;;8.80;70.70;;;;;;5051451;28;20027;-58
2021/10/14 05:28:07;;;;;;;20.20;14.75;;;8.70;70.90;;;;;;5034797;28;20108;-55
2021/10/14 05:30:33;;;;;;;21.15;14.63;;;8.70;70.90;;;;;;5052401;28;20025;-55
2021/10/14 05:32:59;;;;;;;20.35;14.63;;;8.80;71.00;;;;;;5051615;28;20216;-53
2021/10/14 05:35:24;;;;;;;23.58;14.32;;;8.80;70.90;;;;;;5034489;28;20029;-53
2021/10/14 05:37:50;;;;;;;19.05;15.10;;;8.80;71.00;;;;;;5033695;28;20048;-57
2021/10/14 05:40:16;;;;;;;18.50;14.57;;;8.80;70.90;;;;;;5051823;28;20040;-55
2021/10/14 05:42:41;;;;;;;21.10;14.15;;;8.80;70.90;;;;;;5051363;28;20025;-52
2021/10/14 05:45:07;;;;;;;22.77;13.95;;;8.90;70.90;;;;;;5050897;28;20053;-56
2021/10/14 05:47:33;;;;;;;21.05;14.30;;;8.90;70.90;;;;;;5033380;28;20050;-57
2021/10/14 05:49:59;;;;;;;21.80;14.43;;;9.00;70.90;;;;;;5051218;28;20185;-56
2021/10/14 05:52:25;;;;;;;19.35;15.32;;;9.00;70.90;;;;;;5033687;28;20036;-57
2021/10/14 05:54:51;;;;;;;18.35;14.68;;;9.00;70.90;;;;;;5033365;28;20128;-57
2021/10/14 05:57:16;;;;;;;19.77;14.90;;;9.10;70.90;;;;;;5051613;28;20426;-57
2021/10/14 05:59:42;;;;;;;23.75;14.85;;;9.10;70.90;;;;;;5051027;28;20264;-56
2021/10/14 06:02:08;;;;;;;19.55;14.40;;;9.10;70.90;;;;;;5051790;28;20043;-57
2021/10/14 06:04:33;;;;;;;21.42;14.70;;;9.10;70.90;;;;;;5033794;28;20398;-55
2021/10/14 06:06:59;;;;;;;23.73;14.45;;;9.20;70.90;;;;;;5050997;28;20243;-52
2021/10/14 06:09:25;;;;;;;28.92;14.90;;;9.30;70.90;;;;;;5051390;28;20505;-55
2021/10/14 06:11:50;;;;;;;24.42;14.32;;;9.30;70.80;;;;;;5033338;28;20099;-54
2021/10/14 06:14:16;;;;;;;17.85;15.05;;;9.30;70.70;;;;;;5050320;28;20028;-55
2021/10/14 06:16:42;;;;;;;19.50;15.13;;;9.30;70.60;;;;;;5032753;28;20117;-55
2021/10/14 06:19:08;;;;;;;19.80;14.60;;;9.30;70.70;;;;;;5051743;28;20104;-54
2021/10/14 06:21:34;;;;;;;23.35;15.38;;;9.40;70.80;;;;;;5033238;28;20393;-56
2021/10/14 06:23:59;;;;;;;20.08;15.52;;;9.50;70.70;;;;;;5050811;28;20395;-56
2021/10/14 06:26:25;;;;;;;28.92;16.25;;;9.60;70.40;;;;;;5051203;28;20096;-55
2021/10/14 06:28:51;;;;;;;29.80;17.05;;;9.70;70.20;;;;;;5032888;28;20025;-57
2021/10/14 06:31:17;;;;;;;25.35;16.42;;;9.70;70.00;;;;;;5050826;28;20033;-54
2021/10/14 06:33:42;;;;;;;22.38;14.88;;;9.80;70.00;;;;;;5031990;28;20032;-57
2021/10/14 06:36:08;;;;;;;21.92;14.98;;;10.00;69.80;;;;;;5032944;28;20025;-51
2021/10/14 06:38:34;;;;;;;21.58;16.15;;;10.20;69.20;;;;;;5051233;28;20044;-55
2021/10/14 06:40:59;;;;;;;18.45;13.63;;;10.40;68.90;;;;;;5032526;28;20362;-53
2021/10/14 06:43:25;;;;;;;22.27;14.57;;;10.50;68.20;;;;;;5050778;28;20025;-55
2021/10/14 06:45:51;;;;;;;19.05;14.68;;;10.60;67.40;;;;;;5050430;28;20470;-53
2021/10/14 06:48:16;;;;;;;16.55;13.80;;;10.70;67.10;;;;;;5050797;28;20469;-56
2021/10/14 06:50:42;;;;;;;17.00;13.15;;;10.70;67.00;;;;;;5049919;28;20036;-54
2021/10/14 06:53:11;;;;;;;19.02;13.82;;;10.90;66.90;;;;;;5050417;28;20089;-58
2021/10/14 06:55:37;;;;;;;21.95;13.20;;;10.90;66.50;;;;;;5050565;28;20492;-55
2021/10/14 06:58:03;;;;;;;22.42;13.90;;;11.00;66.00;;;;;;5050021;28;20359;-56
2021/10/14 07:00:29;;;;;;;21.67;13.52;;;11.10;65.90;;;;;;5032725;28;20036;-54
2021/10/14 07:02:54;;;;;;;18.45;12.93;;;11.20;65.80;;;;;;5032241;28;20385;-55
2021/10/14 07:05:20;;;;;;;17.73;15.38;;;11.50;66.20;;;;;;5050613;28;20075;-54
2021/10/14 07:07:46;;;;;;;20.33;12.75;;;13.80;64.80;;;;;;5048827;28;20115;-54
2021/10/14 07:10:15;;;;;;;14.80;11.15;;;16.10;57.20;;;;;;5050886;28;20110;-53
2021/10/14 07:12:41;;;;;;;12.18;10.43;;;16.90;53.60;;;;;;5050650;28;20044;-60
2021/10/14 07:15:09;;;;;;;12.50;11.18;;;17.40;51.60;;;;;;5050879;28;20021;-54
2021/10/14 07:17:35;;;;;;;22.48;15.15;;;17.70;50.20;;;;;;5050326;28;20043;-55
2021/10/14 07:20:02;;;;;;;14.73;13.23;;;18.40;48.90;;;;;;5050215;28;20125;-54
2021/10/14 07:22:28;;;;;;;14.63;13.13;;;20.40;45.50;;;;;;5049868;28;20453;-56
2021/10/14 07:24:54;;;;;;;14.68;13.18;;;22.00;41.20;;;;;;5032195;28;20029;-57
2021/10/14 07:27:19;;;;;;;11.80;10.60;;;23.00;39.50;;;;;;5049387;28;20458;-53
2021/10/14 07:29:45;;;;;;;14.18;12.45;;;23.30;38.40;;;;;;5050339;28;20021;-56
2021/10/14 07:32:11;;;;;;;13.27;11.90;;;24.20;37.40;;;;;;5050787;28;20071;-56
2021/10/14 07:34:38;;;;;;;16.38;13.13;;;25.40;36.00;;;;;;5050414;28;20451;-54
2021/10/14 07:37:05;;;;;;;17.33;13.18;;;26.10;34.30;;;;;;5050407;28;20053;-53
2021/10/14 07:39:32;;;;;;;13.27;11.88;;;27.00;33.10;;;;;;5050491;28;20021;-55
2021/10/14 07:41:58;;;;;;;12.23;10.73;;;27.70;32.00;;;;;;5049938;28;20024;-54
2021/10/14 07:44:24;;;;;;;15.80;11.85;;;28.00;30.70;;;;;;5050408;28;20362;-51
2021/10/14 07:46:49;;;;;;;13.02;9.95;;;28.50;30.80;;;;;;5035263;28;20061;-50
2021/10/14 07:49:16;;;;;;;13.43;12.10;;;28.40;29.80;;;;;;5054651;28;20025;-53
2021/10/14 07:51:42;;;;;;;12.85;11.52;;;28.80;30.10;;;;;;5054556;28;20043;-52
2021/10/14 07:54:08;;;;;;;12.07;10.80;;;29.30;29.60;;;;;;5053925;28;20029;-51
2021/10/14 07:56:34;;;;;;;16.08;13.45;;;29.60;29.10;;;;;;5054425;28;20057;-56
2021/10/14 07:59:00;;;;;;;9.82;8.88;;;29.30;28.80;;;;;;5053720;28;20066;-54
2021/10/14 08:01:26;;;;;;;10.35;7.18;;;27.80;29.00;;;;;;5053885;28;20037;-53
2021/10/14 08:03:51;;;;;;;11.18;6.68;;;25.80;30.10;;;;;;5053514;28;20033;-50
2021/10/14 08:06:18;;;;;;;9.15;6.88;;;24.00;32.40;;;;;;5054372;28;20040;-55
2021/10/14 08:08:43;;;;;;;12.65;7.82;;;22.60;34.20;;;;;;5036653;28;20118;-54
2021/10/14 08:11:10;;;;;;;13.00;7.10;;;21.30;36.10;;;;;;5052884;28;20080;-53
2021/10/14 08:13:36;;;;;;;14.98;6.93;;;20.40;38.00;;;;;;5052578;28;20052;-57
2021/10/14 08:16:03;;;;;;;10.00;7.18;;;19.80;39.20;;;;;;5052731;28;20107;-57
2021/10/14 08:18:30;;;;;;;9.68;6.95;;;19.30;40.40;;;;;;5049213;28;20721;-57
2021/10/14 08:20:57;;;;;;;11.93;7.82;;;18.90;41.00;;;;;;5052606;28;20036;-51
2021/10/14 08:23:28;;;;;;;12.23;7.50;;;18.40;41.90;;;;;;5053643;28;20086;-54
2021/10/14 08:25:54;;;;;;;11.07;7.95;;;17.90;42.80;;;;;;5053852;28;20032;-52
2021/10/14 08:28:23;;;;;;;11.63;8.32;;;17.50;43.60;;;;;;5050886;28;20028;-54
2021/10/14 08:30:49;;;;;;;9.48;7.40;;;17.20;44.40;;;;;;5035237;28;20403;-55
2021/10/14 08:33:15;;;;;;;11.05;7.35;;;16.90;45.00;;;;;;5053612;28;20170;-54
2021/10/14 08:35:41;;;;;;;10.23;6.88;;;16.60;45.70;;;;;;5032807;28;20097;-56
2021/10/14 08:38:09;;;;;;;11.70;7.30;;;16.40;45.90;;;;;;5053465;28;20028;-56
2021/10/14 08:40:35;;;;;;;17.02;7.60;;;16.10;46.60;;;;;;5051981;28;20024;-56
2021/10/14 08:43:05;;;;;;;17.05;9.48;;;15.90;47.20;;;;;;5050179;28;20037;-58
2021/10/14 08:45:34;;;;;;;9.85;7.22;;;15.90;47.60;;;;;;5052206;28;20387;-58
2021/10/14 08:48:20;;;;;;;23.17;9.27;;;15.80;47.80;;;;;;5052484;28;20284;-55
2021/10/14 08:50:47;;;;;;;9.27;6.78;;;15.70;47.90;;;;;;5052045;28;20033;-55
2021/10/14 08:53:14;;;;;;;14.75;7.15;;;15.70;47.90;;;;;;5051043;28;20025;-62
2021/10/14 08:55:40;;;;;;;12.60;7.00;;;15.50;48.20;;;;;;5051805;28;20269;-57
2021/10/14 08:58:09;;;;;;;9.70;6.63;;;15.40;48.70;;;;;;5047848;28;20029;-61
2021/10/14 09:00:36;;;;;;;10.48;7.45;;;15.30;48.80;;;;;;5051873;28;20398;-60
2021/10/14 09:03:26;;;;;;;10.45;7.13;;;15.20;49.50;;;;;;5052136;28;20025;-62
2021/10/14 09:05:52;;;;;;;13.05;7.63;;;15.20;49.70;;;;;;5040022;28;20645;-61
2021/10/14 09:08:36;;;;;;;10.18;6.82;;;15.20;49.60;;;;;;5052212;28;20029;-62
2021/10/14 09:11:02;;;;;;;;;;;15.20;49.50;;;;;;5049657;28;20119;-60
2021/10/14 09:13:28;;;;;;;11.93;7.10;;;15.30;49.40;;;;;;5052688;28;20341;-62
2021/10/14 09:15:58;;;;;;;9.85;6.93;;;15.30;49.40;;;;;;5034035;28;20025;-61
2021/10/14 09:18:26;;;;;;;13.85;6.90;;;15.50;49.10;;;;;;5052463;28;20021;-61
2021/10/14 09:20:53;;;;;;;9.63;6.70;;;15.70;48.90;;;;;;5047419;28;20028;-58
2021/10/14 09:23:21;;;;;;;10.93;6.82;;;15.80;48.80;;;;;;5052281;28;20477;-60
2021/10/14 09:25:50;;;;;;;14.18;7.30;;;15.70;48.80;;;;;;5049638;28;20074;-61
2021/10/14 09:28:21;;;;;;;8.52;6.32;;;15.70;49.10;;;;;;5051360;28;20017;-57
2021/10/14 09:30:49;;;;;;;12.48;6.45;;;15.90;49.00;;;;;;5050870;28;20067;-58
2021/10/14 09:33:36;;;;;;;9.38;5.85;;;15.90;48.70;;;;;;5032788;28;20032;-59
2021/10/14 09:36:23;;;;;;;9.90;6.32;;;15.90;48.50;;;;;;5050470;28;20089;-59
2021/10/14 09:39:03;;;;;;;8.68;6.00;;;16.00;48.60;;;;;;5031328;28;20160;-59
2021/10/14 09:41:36;;;;;;;8.10;6.15;;;16.10;48.60;;;;;;5051918;28;20043;-56
2021/10/14 09:44:05;;;;;;;12.37;6.10;;;15.90;48.80;;;;;;5048687;28;20033;-59
2021/10/14 09:46:32;;;;;;;10.73;6.15;;;15.70;48.60;;;;;;5032162;28;20048;-52
2021/10/14 09:48:58;;;;;;;8.43;5.70;;;15.50;49.10;;;;;;5051429;28;20454;-55
2021/10/14 09:51:24;;;;;;;15.10;6.72;;;15.40;49.50;;;;;;5050150;28;20036;-60
2021/10/14 09:53:50;;;;;;;11.30;6.45;;;15.40;49.60;;;;;;5048760;28;20091;-59
2021/10/14 09:56:16;;;;;;;8.80;5.70;;;15.40;49.70;;;;;;5050863;28;20429;-57
2021/10/14 09:58:42;;;;;;;10.35;6.93;;;15.40;49.90;;;;;;5048861;28;20108;-55
2021/10/14 10:01:08;;;;;;;11.75;6.00;;;15.60;49.70;;;;;;5051398;28;20029;-59
2021/10/14 10:03:34;;;;;;;8.30;6.00;;;15.70;49.50;;;;;;5051083;28;20029;-58
2021/10/14 10:06:04;;;;;;;10.13;5.45;;;15.70;49.60;;;;;;5049631;28;20500;-55
2021/10/14 10:08:32;;;;;;;12.20;6.07;;;15.80;49.60;;;;;;5051182;28;20021;-58
2021/10/14 10:11:02;;;;;;;11.85;6.47;;;15.80;49.70;;;;;;5030488;28;20037;-58
2021/10/14 10:13:30;;;;;;;12.00;6.43;;;15.80;49.50;;;;;;5049189;28;20057;-55
2021/10/14 10:16:19;;;;;;;9.57;5.85;;;15.80;49.60;;;;;;5050434;28;20031;-52
2021/10/14 10:18:46;;;;;;;7.07;5.93;;;15.80;50.00;;;;;;5051149;28;20029;-54
2021/10/14 10:21:30;;;;;;;9.13;6.47;;;15.80;49.80;;;;;;5050738;28;20033;-53
2021/10/14 10:24:03;;;;;;;16.83;6.07;;;15.70;49.40;;;;;;5048265;28;20434;-54
2021/10/14 10:26:35;;;;;;;17.25;6.03;;;15.80;50.10;;;;;;5049496;28;20033;-53
2021/10/14 10:29:13;;;;;;;10.82;6.53;;;15.90;50.20;;;;;;5050387;28;20040;-55
2021/10/14 10:31:54;;;;;;;13.23;5.90;;;15.90;49.20;;;;;;5050530;28;20149;-57
2021/10/14 10:37:18;;;;;;;12.10;5.15;;;15.90;48.80;;;;;;5048018;28;20029;-54
2021/10/14 10:39:55;;;;;;;9.40;5.55;;;16.00;51.90;;;;;;5032595;28;20437;-58
2021/10/14 10:42:31;;;;;;;13.00;5.95;;;16.10;49.40;;;;;;5050495;28;20036;-55
2021/10/14 10:45:24;;;;;;;9.65;5.70;;;16.30;48.40;;;;;;5047580;28;20041;-60
2021/10/14 10:47:53;;;;;;;8.93;5.18;;;16.40;48.50;;;;;;5048405;28;20029;-58
2021/10/14 10:50:23;;;;;;;10.95;5.38;;;16.50;48.90;;;;;;5048747;28;20041;-56
2021/10/14 10:53:10;;;;;;;7.03;4.10;;;16.60;47.90;;;;;;5050347;28;20024;-60
2021/10/14 10:55:49;;;;;;;6.93;3.22;;;16.50;47.90;;;;;;5047582;28;20025;-56
2021/10/14 10:58:34;;;;;;;6.10;3.75;;;16.40;48.10;;;;;;5049186;28;20025;-61
2021/10/14 11:01:00;;;;;;;9.48;5.00;;;16.40;48.10;;;;;;5046531;28;20025;-60
2021/10/14 11:03:27;;;;;;;8.25;4.03;;;16.50;48.00;;;;;;5051327;28;20025;-55
2021/10/14 11:06:01;;;;;;;6.32;3.50;;;16.60;47.60;;;;;;5032931;28;20441;-58
2021/10/14 11:08:28;;;;;;;;;;;16.60;47.50;;;;;;5047472;28;20090;-60
2021/10/14 11:10:56;;;;;;;5.78;2.72;;;16.70;48.90;;;;;;5031217;28;20007;-62
2021/10/14 11:13:23;;;;;;;4.97;3.10;;;16.60;48.60;;;;;;5048249;28;20407;-60
2021/10/14 11:15:54;;;;;;;5.15;2.85;;;16.40;48.30;;;;;;5032225;28;20025;-61
2021/10/14 11:18:22;;;;;;;7.07;3.40;;;16.30;49.20;;;;;;5048139;28;20021;-59
2021/10/14 11:21:00;;;;;;;9.55;3.50;;;16.20;49.00;;;;;;5051096;28;20025;-59
2021/10/14 11:23:30;;;;;;;6.13;3.28;;;16.10;50.20;;;;;;5036347;28;20029;-57
2021/10/14 11:26:19;;;;;;;5.03;3.50;;;16.10;49.50;;;;;;5035661;28;20028;-57
2021/10/14 11:28:59;;;;;;;5.03;3.40;;;16.00;49.60;;;;;;5053051;28;20040;-56
2021/10/14 11:31:51;;;;;;;7.47;4.00;;;15.90;49.90;;;;;;5054294;28;20025;-58
2021/10/14 11:34:26;;;;;;;5.70;3.88;;;15.60;51.40;;;;;;5054490;28;20017;-55
2021/10/14 11:37:02;;;;;;;6.13;4.10;;;15.40;51.50;;;;;;5052287;28;20082;-57
2021/10/14 11:39:34;;;;;;;5.82;4.53;;;15.40;51.70;;;;;;5054101;28;20120;-58
2021/10/14 11:42:02;;;;;;;8.48;4.38;;;15.40;53.80;;;;;;5035555;28;20454;-56
2021/10/14 11:44:32;;;;;;;12.20;5.25;;;15.40;52.80;;;;;;5053792;28;20021;-59
2021/10/14 11:46:58;;;;;;;11.90;4.97;;;15.30;52.80;;;;;;5035306;28;20025;-58
2021/10/14 11:49:24;;;;;;;6.28;4.00;;;15.30;52.70;;;;;;5035903;28;20063;-58
2021/10/14 11:51:51;;;;;;;8.07;4.97;;;15.40;53.50;;;;;;5052296;28;20495;-60
2021/10/14 11:54:19;;;;;;;11.27;4.68;;;15.40;53.40;;;;;;5035753;28;20462;-60
2021/10/14 11:56:50;;;;;;;9.57;4.60;;;15.40;54.30;;;;;;5035391;28;20047;-58
2021/10/14 11:59:18;;;;;;;9.10;5.38;;;15.40;53.70;;;;;;5054219;28;20326;-57
2021/10/14 12:01:49;;;;;;;11.02;5.18;;;15.40;52.70;;;;;;5053476;28;20107;-59
2021/10/14 12:04:23;;;;;;;7.95;5.50;;;15.50;52.80;;;;;;5035021;28;20488;-60
2021/10/14 12:06:50;;;;;;;11.50;5.10;;;15.70;52.50;;;;;;5053360;28;20017;-57
2021/10/14 12:09:19;;;;;;;9.52;4.93;;;15.90;53.20;;;;;;5053346;28;20458;-61
2021/10/14 12:11:45;;;;;;;7.93;4.18;;;16.10;52.10;;;;;;5053597;28;20172;-57
2021/10/14 12:14:11;;;;;;;6.05;4.72;;;16.00;52.50;;;;;;5052799;28;20233;-59
2021/10/14 12:16:37;;;;;;;9.30;5.45;;;16.10;51.20;;;;;;5054151;28;20360;-56
2021/10/14 12:19:17;;;;;;;8.65;4.75;;;16.20;51.00;;;;;;5053271;28;20135;-60
2021/10/14 12:21:45;;;;;;;7.40;4.45;;;16.20;50.60;;;;;;5035638;28;20166;-57
2021/10/14 12:24:18;;;;;;;7.15;4.28;;;16.30;50.80;;;;;;5034894;28;20059;-56
2021/10/14 12:26:45;;;;;;;8.77;4.80;;;16.40;50.50;;;;;;5035519;28;20032;-56
2021/10/14 12:29:31;;;;;;;8.52;4.63;;;16.60;50.30;;;;;;5028456;28;20343;-59
2021/10/14 12:32:08;;;;;;;5.28;4.15;;;16.50;51.30;;;;;;5051577;28;20064;-60
2021/10/14 12:34:57;;;;;;;6.10;4.07;;;16.30;50.30;;;;;;5053506;28;20223;-56
2021/10/14 12:37:31;;;;;;;9.68;4.65;;;16.30;50.50;;;;;;5052844;28;20033;-60
2021/10/14 12:40:16;;;;;;;5.78;4.35;;;16.20;50.70;;;;;;5051848;28;20485;-58
2021/10/14 12:45:28;;;;;;;5.38;3.80;;;16.30;50.50;;;;;;5050561;28;20474;-52
2021/10/14 12:47:55;;;;;;;10.52;3.90;;;16.30;50.70;;;;;;5052081;28;20136;-57
2021/10/14 12:50:43;;;;;;;6.03;3.92;;;16.30;51.90;;;;;;5051541;28;20040;-57
2021/10/14 12:53:13;;;;;;;8.20;3.38;;;16.30;51.10;;;;;;5051177;28;20033;-59
2021/10/14 12:55:58;;;;;;;5.20;3.13;;;16.40;50.30;;;;;;5052702;28;20157;-60